Time;durP1;ratioP1;P1;durP2;ratioP2;P2;SDS_P1;SDS_P2;PMS_P1;PMS_P2;Temp;Humidity;BMP_temperature;BMP_pressure;BME280_temperature;BME280_humidity;BME280_pressure;Samples;Min_cycle;Max_cycle;Signal;HPM_P1;HPM_P2
2022/03/24 00:00:16;;;;;;;;;;;5.60;99.90;;;;;;5110441;28;19924;-51
2022/03/24 00:02:45;;;;;;;;;;;5.50;99.90;;;;;;5111411;28;20022;-50
2022/03/24 00:05:12;;;;;;;;;;;5.40;99.90;;;;;;5091688;28;19976;-51
2022/03/24 00:07:40;;;;;;;;;;;5.40;99.90;;;;;;5091671;28;19931;-50
2022/03/24 00:13:12;;;;;;;;;;;5.40;99.90;;;;;;5107870;28;20405;-50
2022/03/24 00:15:39;;;;;;;;;;;5.40;99.90;;;;;;5111886;28;19977;-51
2022/03/24 00:18:07;;;;;;;;;;;5.30;99.90;;;;;;5112054;28;19927;-51
2022/03/24 00:20:34;;;;;;;;;;;5.20;99.90;;;;;;5117955;22;20379;-53
2022/03/24 00:23:01;;;;;;;;;;;5.10;99.90;;;;;;5087919;28;20007;-54
2022/03/24 00:25:28;;;;;;;;;;;5.00;99.90;;;;;;5090361;28;19975;-53
2022/03/24 00:27:54;;;;;;;;;;;4.90;99.90;;;;;;5092480;28;19985;-54
2022/03/24 00:30:21;;;;;;;;;;;4.90;99.90;;;;;;5076421;28;20413;-54
2022/03/24 00:32:48;;;;;;;;;;;4.80;99.90;;;;;;5090989;28;19950;-53
2022/03/24 00:35:16;;;;;;;;;;;4.80;99.90;;;;;;5072094;28;20005;-53
2022/03/24 00:37:43;;;;;;;;;;;4.80;99.90;;;;;;5071281;28;20019;-54
2022/03/24 00:40:10;;;;;;;;;;;4.80;99.90;;;;;;5071859;28;19994;-54
2022/03/24 00:42:37;;;;;;;;;;;4.70;99.90;;;;;;5071321;28;20357;-53
2022/03/24 00:45:05;;;;;;;;;;;4.70;99.90;;;;;;5071320;28;20039;-53
2022/03/24 00:47:32;;;;;;;;;;;4.70;99.90;;;;;;5071495;28;19924;-53
2022/03/24 00:49:59;;;;;;;;;;;4.70;99.90;;;;;;5071013;28;20263;-53
2022/03/24 00:52:27;;;;;;;;;;;4.70;99.90;;;;;;5071280;28;19978;-53
2022/03/24 00:54:54;;;;;;;;;;;4.60;99.90;;;;;;5071805;28;19930;-53
2022/03/24 00:57:21;;;;;;;;;;;4.60;99.90;;;;;;5071491;28;19932;-53
2022/03/24 00:59:47;;;;;;;;;;;4.60;99.90;;;;;;5068624;28;20451;-53
2022/03/24 01:02:14;;;;;;;;;;;4.50;99.90;;;;;;5086304;28;19996;-53
2022/03/24 01:04:41;;;;;;;;;;;4.50;99.90;;;;;;5071766;28;20023;-53
2022/03/24 01:07:08;;;;;;;;;;;4.50;99.90;;;;;;5071844;28;20011;-53
2022/03/24 01:09:36;;;;;;;;;;;4.40;99.90;;;;;;5071102;28;20001;-53
2022/03/24 01:12:03;;;;;;;;;;;4.40;99.90;;;;;;5071147;28;19924;-53
2022/03/24 01:14:35;;;;;;;;;;;4.40;99.90;;;;;;5071071;28;19936;-53
2022/03/24 01:17:04;;;;;;;;;;;4.40;99.90;;;;;;5071433;28;19960;-53
2022/03/24 01:19:32;;;;;;;;;;;4.40;99.90;;;;;;5070360;28;19928;-53
2022/03/24 01:21:59;;;;;;;;;;;4.40;99.90;;;;;;5068606;28;19947;-53
2022/03/24 01:24:26;;;;;;;;;;;4.50;99.90;;;;;;5071175;28;20294;-53
2022/03/24 01:26:54;;;;;;;;;;;4.40;99.90;;;;;;5071189;28;20368;-53
2022/03/24 01:29:22;;;;;;;;;;;4.30;99.90;;;;;;5070712;28;19951;-53
2022/03/24 01:31:48;;;;;;;;;;;4.50;99.90;;;;;;5070694;28;20359;-53
2022/03/24 01:34:16;;;;;;;;;;;4.70;99.90;;;;;;5070511;28;19989;-53
2022/03/24 01:36:43;;;;;;;;;;;4.70;99.90;;;;;;5070109;28;20015;-53
2022/03/24 01:39:10;;;;;;;;;;;4.40;99.90;;;;;;5069457;28;20028;-53
2022/03/24 01:41:38;;;;;;;;;;;4.30;99.90;;;;;;5063640;28;19957;-53
2022/03/24 01:44:12;;;;;;;;;;;4.10;99.90;;;;;;5050565;28;19948;-53
2022/03/24 01:46:39;;;;;;;;;;;4.10;99.90;;;;;;5050575;28;20063;-53
2022/03/24 01:49:06;;;;;;;;;;;4.00;99.90;;;;;;5050941;28;19925;-53
2022/03/24 01:51:32;;;;;;;;;;;4.00;99.90;;;;;;5070487;28;19928;-53
2022/03/24 01:53:59;;;;;;;;;;;3.90;99.90;;;;;;5070488;28;20269;-53
2022/03/24 01:56:26;;;;;;;;;;;3.80;99.90;;;;;;5070655;28;19924;-53
2022/03/24 01:58:54;;;;;;;;;;;3.80;99.90;;;;;;5070417;28;19928;-53
2022/03/24 02:01:30;;;;;;;;;;;3.80;99.90;;;;;;5074780;28;20402;-53
2022/03/24 02:03:58;;;;;;;;;;;3.80;99.90;;;;;;5090852;28;19950;-53
2022/03/24 02:06:24;;;;;;;;;;;3.80;99.90;;;;;;5074157;28;20008;-53
2022/03/24 02:08:51;;;;;;;;;;;3.80;99.90;;;;;;5070156;28;19950;-53
2022/03/24 02:11:18;;;;;;;;;;;3.80;99.90;;;;;;5069610;28;19990;-53
2022/03/24 02:13:45;;;;;;;;;;;3.90;99.90;;;;;;5070118;28;19928;-53
2022/03/24 02:16:12;;;;;;;;;;;3.80;99.90;;;;;;5069486;28;20029;-53
2022/03/24 02:18:40;;;;;;;;;;;3.70;99.90;;;;;;5072857;28;19928;-53
2022/03/24 02:21:08;;;;;;;;;;;3.80;99.90;;;;;;5069497;28;19924;-53
2022/03/24 02:23:36;;;;;;;;;;;3.70;99.90;;;;;;5070055;28;19928;-53
2022/03/24 02:26:03;;;;;;;;;;;3.60;99.90;;;;;;5069767;28;20231;-53
2022/03/24 02:28:30;;;;;;;;;;;3.70;99.90;;;;;;5069915;28;19924;-53
2022/03/24 02:30:57;;;;;;;;;;;3.80;99.90;;;;;;5069760;28;19995;-53
2022/03/24 02:33:24;;;;;;;;;;;3.80;99.90;;;;;;5067151;28;19925;-53
2022/03/24 02:35:51;;;;;;;;;;;3.60;99.90;;;;;;5069344;28;20340;-53
2022/03/24 02:38:19;;;;;;;;;;;3.50;99.90;;;;;;5069262;28;19986;-53
2022/03/24 02:40:48;;;;;;;;;;;3.60;99.90;;;;;;5069129;28;19989;-52
2022/03/24 02:43:17;;;;;;;;;;;3.60;99.90;;;;;;5070075;28;20031;-53
2022/03/24 02:45:45;;;;;;;;;;;3.60;99.90;;;;;;5069873;28;19924;-53
2022/03/24 02:48:12;;;;;;;;;;;3.70;99.90;;;;;;5069578;28;19924;-53
2022/03/24 02:50:39;;;;;;;;;;;3.60;99.90;;;;;;5069617;28;19928;-53
2022/03/24 02:53:06;;;;;;;;;;;3.50;99.90;;;;;;5068929;28;20041;-53
2022/03/24 02:55:32;;;;;;;;;;;3.50;99.90;;;;;;5069803;28;19936;-53
2022/03/24 02:58:01;;;;;;;;;;;3.40;99.90;;;;;;5069556;28;19978;-53
2022/03/24 03:00:27;;;;;;;;;;;3.40;99.90;;;;;;5069466;28;19924;-53
2022/03/24 03:02:54;;;;;;;;;;;3.30;99.90;;;;;;5069454;28;19925;-53
2022/03/24 03:05:21;;;;;;;;;;;3.20;99.90;;;;;;5068973;28;19981;-53
2022/03/24 03:07:48;;;;;;;;;;;3.30;99.90;;;;;;5069451;28;19990;-53
2022/03/24 03:10:15;;;;;;;;;;;3.30;99.90;;;;;;5069356;28;19994;-53
2022/03/24 03:12:44;;;;;;;;;;;3.30;99.90;;;;;;5069364;28;19929;-53
2022/03/24 03:15:12;;;;;;;;;;;3.40;99.90;;;;;;5069551;28;19924;-53
2022/03/24 03:17:39;;;;;;;;;;;3.50;99.90;;;;;;5068704;28;19950;-53
2022/03/24 03:20:07;;;;;;;;;;;3.40;99.90;;;;;;5068503;28;19954;-53
2022/03/24 03:22:33;;;;;;;;;;;3.30;99.90;;;;;;5068943;28;20024;-53
2022/03/24 03:25:00;;;;;;;;;;;3.20;99.90;;;;;;5069381;28;20058;-53
2022/03/24 03:27:31;;;;;;;;;;;3.20;99.90;;;;;;5069307;28;20364;-53
2022/03/24 03:29:58;;;;;;;;;;;3.10;99.90;;;;;;5067813;28;19964;-53
2022/03/24 03:32:26;;;;;;;;;;;3.20;99.90;;;;;;5067675;28;19924;-53
2022/03/24 03:34:53;;;;;;;;;;;3.50;99.90;;;;;;5067596;28;19936;-53
2022/03/24 03:37:19;;;;;;;;;;;3.80;99.90;;;;;;5067804;28;19924;-53
2022/03/24 03:39:46;;;;;;;;;;;3.80;99.90;;;;;;5067932;28;20003;-53
2022/03/24 03:42:13;;;;;;;;;;;3.60;99.90;;;;;;5067991;28;19929;-53
2022/03/24 03:44:40;;;;;;;;;;;3.30;99.90;;;;;;5067857;28;20024;-53
2022/03/24 03:47:07;;;;;;;;;;;3.10;99.90;;;;;;5067620;28;20034;-53
2022/03/24 03:49:36;;;;;;;;;;;2.90;99.90;;;;;;5068251;28;19924;-53
2022/03/24 03:52:03;;;;;;;;;;;2.80;99.90;;;;;;5068387;28;19925;-53
2022/03/24 03:54:30;;;;;;;;;;;2.80;99.90;;;;;;5068690;28;19951;-53
2022/03/24 03:56:58;;;;;;;;;;;2.70;99.90;;;;;;5068128;28;20388;-53
2022/03/24 03:59:24;;;;;;;;;;;2.70;99.90;;;;;;5064762;28;19928;-53
2022/03/24 04:01:52;;;;;;;;;;;2.70;99.90;;;;;;5074070;28;19998;-53
2022/03/24 04:04:19;;;;;;;;;;;2.70;99.90;;;;;;5075973;28;19932;-53
2022/03/24 04:06:47;;;;;;;;;;;2.70;99.90;;;;;;5071334;28;20014;-53
2022/03/24 04:09:14;;;;;;;;;;;2.60;99.90;;;;;;5070125;28;19979;-53
2022/03/24 04:11:40;;;;;;;;;;;2.80;99.90;;;;;;5070835;28;20002;-53
2022/03/24 04:14:07;;;;;;;;;;;2.80;99.90;;;;;;5070947;28;20390;-53
2022/03/24 04:16:34;;;;;;;;;;;2.80;99.90;;;;;;5071102;28;19943;-52
2022/03/24 04:19:05;;;;;;;;;;;2.90;99.90;;;;;;5070781;28;19936;-53
2022/03/24 04:21:31;;;;;;;;;;;2.90;99.90;;;;;;5070475;28;19944;-53
2022/03/24 04:24:00;;;;;;;;;;;2.80;99.90;;;;;;5070565;28;19932;-53
2022/03/24 04:26:26;;;;;;;;;;;2.70;99.90;;;;;;5070283;28;19986;-53
2022/03/24 04:28:53;;;;;;;;;;;2.60;99.90;;;;;;5071962;28;19924;-53
2022/03/24 04:31:22;;;;;;;;;;;2.50;99.90;;;;;;5070133;28;19987;-53
2022/03/24 04:33:49;;;;;;;;;;;2.50;99.90;;;;;;5071770;28;19943;-53
2022/03/24 04:36:16;;;;;;;;;;;2.50;99.90;;;;;;5071618;28;19990;-53
2022/03/24 04:38:43;;;;;;;;;;;2.50;99.90;;;;;;5070651;28;19960;-53
2022/03/24 04:41:11;;;;;;;;;;;2.70;99.90;;;;;;5073174;28;20025;-53
2022/03/24 04:43:38;;;;;;;;;;;2.60;99.90;;;;;;5071123;28;19932;-53
2022/03/24 04:46:05;;;;;;;;;;;2.60;99.90;;;;;;5072638;28;19947;-53
2022/03/24 04:48:36;;;;;;;;;;;2.50;99.90;;;;;;5067478;28;20005;-53
2022/03/24 04:51:03;;;;;;;;;;;2.50;99.90;;;;;;5070577;28;19964;-53
2022/03/24 04:53:30;;;;;;;;;;;2.40;99.90;;;;;;5070889;28;20019;-53
2022/03/24 04:55:57;;;;;;;;;;;2.30;99.90;;;;;;5071037;28;19936;-53
2022/03/24 04:58:25;;;;;;;;;;;2.30;99.90;;;;;;5073848;28;19924;-53
2022/03/24 05:00:53;;;;;;;;;;;2.30;99.90;;;;;;5070097;28;20360;-53
2022/03/24 05:03:20;;;;;;;;;;;2.30;99.90;;;;;;5070827;28;19924;-53
2022/03/24 05:05:47;;;;;;;;;;;2.20;99.90;;;;;;5070755;28;19928;-53
2022/03/24 05:08:14;;;;;;;;;;;2.20;99.90;;;;;;5070196;28;19932;-53
2022/03/24 05:10:40;;;;;;;;;;;2.20;99.90;;;;;;5069460;28;19978;-53
2022/03/24 05:13:08;;;;;;;;;;;2.20;99.90;;;;;;5069778;28;19985;-53
2022/03/24 05:15:36;;;;;;;;;;;2.20;99.90;;;;;;5070590;28;19929;-53
2022/03/24 05:18:03;;;;;;;;;;;2.20;99.90;;;;;;5070629;28;19928;-53
2022/03/24 05:20:30;;;;;;;;;;;2.20;99.90;;;;;;5070345;28;19932;-53
2022/03/24 05:22:57;;;;;;;;;;;2.20;99.90;;;;;;5069892;28;19925;-53
2022/03/24 05:25:25;;;;;;;;;;;2.20;99.90;;;;;;5069804;28;20022;-53
2022/03/24 05:27:51;;;;;;;;;;;2.30;99.90;;;;;;5070286;28;19924;-53
2022/03/24 05:30:18;;;;;;;;;;;2.30;99.90;;;;;;5069971;28;19982;-53
2022/03/24 05:32:46;;;;;;;;;;;2.20;99.90;;;;;;5069550;28;19924;-53
2022/03/24 05:35:13;;;;;;;;;;;2.30;99.90;;;;;;5070180;28;19924;-53
2022/03/24 05:37:41;;;;;;;;;;;2.40;99.90;;;;;;5067510;28;19928;-52
2022/03/24 05:40:08;;;;;;;;;;;2.50;99.90;;;;;;5069562;28;19963;-52
2022/03/24 05:42:35;;;;;;;;;;;2.60;99.90;;;;;;5069743;28;19925;-53
2022/03/24 05:45:02;;;;;;;;;;;2.60;99.90;;;;;;5066545;28;19928;-52
2022/03/24 05:47:30;;;;;;;;;;;2.70;99.90;;;;;;5066524;28;20350;-53
2022/03/24 05:49:58;;;;;;;;;;;2.90;99.90;;;;;;5069765;28;19924;-53
2022/03/24 05:52:25;;;;;;;;;;;3.10;99.90;;;;;;5054998;28;19925;-53
2022/03/24 05:54:51;;;;;;;;;;;3.20;99.90;;;;;;5066511;28;19936;-53
2022/03/24 05:57:18;;;;;;;;;;;3.20;99.90;;;;;;5061599;28;19925;-52
2022/03/24 05:59:45;;;;;;;;;;;3.20;99.90;;;;;;5066246;28;19925;-53
2022/03/24 06:02:13;;;;;;;;;;;3.30;99.90;;;;;;5069953;28;19924;-53
2022/03/24 06:04:41;;;;;;;;;;;3.40;99.90;;;;;;5070050;28;19924;-52
2022/03/24 06:16:18;;;;;;;;;;;7.10;99.90;;;;;;5070340;28;20359;-53
2022/03/24 06:18:45;;;;;;;;;;;11.10;99.90;;;;;;5068010;28;20384;-54
2022/03/24 06:21:13;;;;;;;;;;;13.80;99.90;;;;;;5123314;22;19943;-49
2022/03/24 06:23:40;;;;;;;;;;;16.10;97.30;;;;;;5105707;28;20023;-51
2022/03/24 06:26:08;;;;;;;;;;;18.10;91.30;;;;;;5109893;28;19932;-51
2022/03/24 06:28:35;;;;;;;;;;;19.70;83.30;;;;;;5109727;28;19938;-51
2022/03/24 06:31:02;;;;;;;;;;;21.00;76.20;;;;;;5094310;28;20425;-51
2022/03/24 06:33:30;;;;;;;;;;;21.80;72.10;;;;;;5091617;28;20433;-51
2022/03/24 06:35:57;;;;;;;;;;;22.70;68.50;;;;;;5087573;28;19977;-51
2022/03/24 06:38:23;;;;;;;;;;;23.80;62.70;;;;;;5091911;28;19981;-51
2022/03/24 06:40:50;;;;;;;;;;;23.90;59.80;;;;;;5090141;28;19924;-51
2022/03/24 06:43:17;;;;;;;;;;;24.00;59.60;;;;;;5087289;28;19963;-51
2022/03/24 06:45:44;;;;;;;;;;;24.40;57.90;;;;;;5091153;28;19990;-51
2022/03/24 06:48:11;;;;;;;;;;;24.30;57.80;;;;;;5086211;28;19928;-51
2022/03/24 06:50:40;;;;;;;;;;;24.40;57.30;;;;;;5089539;28;19932;-51
2022/03/24 06:53:07;;;;;;;;;;;22.60;57.80;;;;;;5086591;28;20003;-51
2022/03/24 06:55:34;;;;;;;;;;;21.90;59.00;;;;;;5090432;28;20065;-51
2022/03/24 06:58:01;;;;;;;;;;;21.30;60.10;;;;;;5085956;28;19924;-51
2022/03/24 07:00:27;;;;;;;;;;;22.60;59.40;;;;;;5090448;28;20334;-51
2022/03/24 07:02:54;;;;;;;;;;;23.30;58.90;;;;;;5085752;28;19928;-51
2022/03/24 07:05:21;;;;;;;;;;;24.30;57.20;;;;;;5085583;28;19935;-51
2022/03/24 07:07:49;;;;;;;;;;;24.70;56.70;;;;;;5090382;28;19927;-52
2022/03/24 07:10:17;;;;;;;;;;;24.90;56.30;;;;;;5090480;28;19939;-52
2022/03/24 07:12:44;;;;;;;;;;;24.30;56.00;;;;;;5090144;28;20367;-51
2022/03/24 07:15:12;;;;;;;;;;;23.80;56.90;;;;;;5090366;28;20044;-51
2022/03/24 07:17:39;;;;;;;;;;;24.20;57.10;;;;;;5090515;28;19924;-51
2022/03/24 07:20:06;;;;;;;;;;;25.20;56.40;;;;;;5089995;28;19997;-52
2022/03/24 07:22:33;;;;;;;;;;;25.60;56.30;;;;;;5089625;28;19936;-51
2022/03/24 07:25:02;;;;;;;;;;;27.00;54.60;;;;;;5089440;28;20099;-51
2022/03/24 07:27:29;;;;;;;;;;;27.50;53.60;;;;;;5091207;28;20299;-51
2022/03/24 07:29:56;;;;;;;;;;;27.40;53.30;;;;;;5089949;28;19932;-52
2022/03/24 07:32:23;;;;;;;;;;;26.90;53.50;;;;;;5070789;28;20549;-52
2022/03/24 07:34:50;;;;;;;;;;;26.40;55.50;;;;;;5076993;28;19931;-51
2022/03/24 07:37:17;;;;;;;;;;;24.50;57.10;;;;;;5079989;28;19937;-52
2022/03/24 07:39:44;;;;;;;;;;;24.20;57.70;;;;;;5077078;28;19970;-52
2022/03/24 07:42:14;;;;;;;;;;;24.00;58.20;;;;;;5081761;28;20298;-52
2022/03/24 07:44:40;;;;;;;;;;;23.00;59.70;;;;;;5091452;28;19938;-51
2022/03/24 07:47:07;;;;;;;;;;;22.20;59.40;;;;;;5082435;28;19924;-50
2022/03/24 07:49:34;;;;;;;;;;;23.40;59.60;;;;;;5071066;28;20449;-51
2022/03/24 07:52:02;;;;;;;;;;;24.90;58.10;;;;;;5070916;28;19924;-51
2022/03/24 07:54:40;;;;;;;;;;;25.80;55.50;;;;;;5071057;28;19932;-51
2022/03/24 07:57:07;;;;;;;;;;;26.00;54.70;;;;;;5077487;28;20000;-52
2022/03/24 07:59:36;;;;;;;;;;;24.40;57.50;;;;;;5084865;28;19928;-52
2022/03/24 08:02:02;;;;;;;;;;;23.60;57.20;;;;;;5090782;28;19928;-51
2022/03/24 08:04:29;;;;;;;;;;;24.90;55.80;;;;;;5091246;28;19985;-51
2022/03/24 08:06:56;;;;;;;;;;;25.30;55.60;;;;;;5090892;28;19928;-52
2022/03/24 08:09:23;;;;;;;;;;;22.90;57.70;;;;;;5091038;28;19928;-52
2022/03/24 08:11:49;;;;;;;;;;;22.80;57.50;;;;;;5080866;28;20001;-52
2022/03/24 08:14:16;;;;;;;;;;;24.70;55.60;;;;;;5071135;28;20354;-52
2022/03/24 08:16:45;;;;;;;;;;;26.00;55.60;;;;;;5090640;28;19928;-52
2022/03/24 08:19:14;;;;;;;;;;;27.50;53.00;;;;;;5090866;28;20066;-52
2022/03/24 08:21:41;;;;;;;;;;;26.50;52.40;;;;;;5090633;28;19924;-52
2022/03/24 08:24:08;;;;;;;;;;;26.10;53.80;;;;;;5090304;28;20001;-52
2022/03/24 08:26:35;;;;;;;;;;;25.60;54.00;;;;;;5088262;28;19932;-51
2022/03/24 08:29:02;;;;;;;;;;;26.60;53.10;;;;;;5089795;28;19986;-52
2022/03/24 08:31:29;;;;;;;;;;;26.70;52.20;;;;;;5089294;28;19924;-52
2022/03/24 08:33:58;;;;;;;;;;;25.10;54.10;;;;;;5089934;28;19924;-52
2022/03/24 08:36:25;;;;;;;;;;;26.80;51.50;;;;;;5089736;28;20017;-52
2022/03/24 08:38:52;;;;;;;;;;;26.50;51.00;;;;;;5087143;28;19925;-52
2022/03/24 08:41:18;;;;;;;;;;;24.90;53.50;;;;;;5089356;28;19928;-52
2022/03/24 08:43:45;;;;;;;;;;;25.30;53.70;;;;;;5086930;28;19932;-52
2022/03/24 08:46:13;;;;;;;;;;;26.80;52.40;;;;;;5090172;28;20440;-52
2022/03/24 08:48:39;;;;;;;;;;;27.80;51.80;;;;;;5087299;28;19925;-52
2022/03/24 08:51:08;;;;;;;;;;;26.70;51.70;;;;;;5093152;28;19928;-52
2022/03/24 08:53:34;;;;;;;;;;;26.40;52.50;;;;;;5092988;28;19936;-52
2022/03/24 08:56:01;;;;;;;;;;;24.90;52.30;;;;;;5090047;28;19932;-52
2022/03/24 08:58:28;;;;;;;;;;;26.20;54.20;;;;;;5093950;28;19924;-52
2022/03/24 09:00:55;;;;;;;;;;;28.00;51.00;;;;;;5093792;28;19924;-51
2022/03/24 09:03:22;;;;;;;;;;;28.00;50.90;;;;;;5093513;28;19982;-52
2022/03/24 09:05:49;;;;;;;;;;;28.20;50.10;;;;;;5093906;28;19924;-52
2022/03/24 09:08:17;;;;;;;;;;;28.60;49.00;;;;;;5093513;28;20290;-52
2022/03/24 09:10:47;;;;;;;;;;;29.70;47.70;;;;;;5092488;28;20227;-52
2022/03/24 09:13:14;;;;;;;;;;;29.50;48.40;;;;;;5086455;28;20014;-52
2022/03/24 09:15:40;;;;;;;;;;;29.70;48.10;;;;;;5092694;28;19924;-52
2022/03/24 09:18:10;;;;;;;;;;;29.50;48.10;;;;;;5093365;28;19970;-52
2022/03/24 09:20:36;;;;;;;;;;;29.30;48.50;;;;;;5093084;28;19924;-52
2022/03/24 09:23:03;;;;;;;;;;;29.70;48.40;;;;;;5093383;28;19924;-52
2022/03/24 09:25:33;;;;;;;;;;;29.90;49.40;;;;;;5093310;28;19925;-52
2022/03/24 09:27:59;;;;;;;;;;;30.60;47.60;;;;;;5093349;28;19931;-53
2022/03/24 09:30:26;;;;;;;;;;;30.30;48.20;;;;;;5093085;28;19924;-52
2022/03/24 09:32:53;;;;;;;;;;;29.10;49.60;;;;;;5093057;28;19925;-53
2022/03/24 09:35:20;;;;;;;;;;;29.20;48.60;;;;;;5092972;28;19928;-52
2022/03/24 09:37:47;;;;;;;;;;;27.00;51.00;;;;;;5093136;28;19924;-52
2022/03/24 09:40:14;;;;;;;;;;;26.50;51.40;;;;;;5092990;28;19936;-52
2022/03/24 09:42:43;;;;;;;;;;;27.20;51.10;;;;;;5093103;28;20336;-52
2022/03/24 09:45:11;;;;;;;;;;;28.10;51.20;;;;;;5092963;28;19924;-52
2022/03/24 09:47:38;;;;;;;;;;;28.50;51.90;;;;;;5093334;28;19924;-52
2022/03/24 09:50:05;;;;;;;;;;;29.40;52.10;;;;;;5092769;28;20007;-52
2022/03/24 09:52:32;;;;;;;;;;;28.80;51.20;;;;;;5093338;28;19978;-52
2022/03/24 09:54:59;;;;;;;;;;;28.40;50.60;;;;;;5080306;28;19977;-51
2022/03/24 09:57:26;;;;;;;;;;;28.20;50.90;;;;;;5092822;28;19984;-52
2022/03/24 09:59:54;;;;;;;;;;;27.70;50.20;;;;;;5091595;28;19993;-51
2022/03/24 10:02:21;;;;;;;;;;;28.30;51.40;;;;;;5092222;28;19928;-52
2022/03/24 10:04:49;;;;;;;;;;;28.30;49.80;;;;;;5092546;28;19932;-52
2022/03/24 10:07:16;;;;;;;;;;;27.50;50.30;;;;;;5093116;28;20039;-52
2022/03/24 10:09:44;;;;;;;;;;;27.70;49.30;;;;;;5092856;28;19970;-52
2022/03/24 10:12:18;;;;;;;;;;;27.70;49.40;;;;;;5092787;28;19924;-51
2022/03/24 10:14:45;;;;;;;;;;;28.20;49.30;;;;;;5092274;28;19930;-52
2022/03/24 10:17:13;;;;;;;;;;;27.70;49.00;;;;;;5091046;28;19977;-52
2022/03/24 10:19:55;;;;;;;;;;;25.90;50.90;;;;;;5088792;28;19924;-52
2022/03/24 10:22:21;;;;;;;;;;;25.80;51.40;;;;;;5091828;28;19924;-52
2022/03/24 10:24:48;;;;;;;;;;;25.80;52.20;;;;;;5090764;28;20383;-52
2022/03/24 10:27:20;;;;;;;;;;;26.90;49.50;;;;;;5091562;28;20446;-52
2022/03/24 10:29:54;;;;;;;;;;;27.40;50.00;;;;;;5091207;28;20676;-52
2022/03/24 10:32:22;;;;;;;;;;;26.60;48.20;;;;;;5091637;28;19924;-52
2022/03/24 10:34:50;;;;;;;;;;;25.40;49.60;;;;;;5089529;28;19928;-52
2022/03/24 10:37:20;;;;;;;;;;;26.10;48.50;;;;;;5091830;28;19957;-52
2022/03/24 10:39:57;;;;;;;;;;;27.00;48.20;;;;;;5089884;28;20004;-52
2022/03/24 10:42:26;;;;;;;;;;;27.40;47.30;;;;;;5091560;28;19978;-52
2022/03/24 10:45:04;;;;;;;;;;;27.40;46.50;;;;;;5092057;28;19959;-52
2022/03/24 10:47:40;;;;;;;;;;;27.60;47.90;;;;;;5091511;28;20306;-52
2022/03/24 10:50:20;;;;;;;;;;;27.40;46.80;;;;;;5090541;28;19924;-52
2022/03/24 10:52:47;;;;;;;;;;;26.40;47.30;;;;;;5091618;28;20001;-51
2022/03/24 10:55:20;;;;;;;;;;;25.80;48.60;;;;;;5091744;28;19982;-52
2022/03/24 10:57:46;;;;;;;;;;;24.40;52.70;;;;;;5091832;28;20452;-52
2022/03/24 11:00:13;;;;;;;;;;;23.10;54.50;;;;;;5089977;28;20407;-52
2022/03/24 11:02:41;;;;;;;;;;;21.60;54.40;;;;;;5089564;28;20104;-52
2022/03/24 11:05:12;;;;;;;;;;;20.90;57.80;;;;;;5089647;28;19924;-51
2022/03/24 11:07:39;;;;;;;;;;;20.20;58.80;;;;;;5092030;28;19944;-52
2022/03/24 11:10:11;;;;;;;;;;;19.70;59.90;;;;;;5089128;28;20341;-52
2022/03/24 11:12:39;;;;;;;;;;;19.20;63.80;;;;;;5091033;28;19946;-53
2022/03/24 11:15:07;;;;;;;;;;;19.40;58.90;;;;;;5091127;28;19925;-52
2022/03/24 11:17:35;;;;;;;;;;;18.80;62.00;;;;;;5088261;28;19923;-52
2022/03/24 11:20:14;;;;;;;;;;;18.80;60.70;;;;;;5091607;28;19953;-52
2022/03/24 11:22:44;;;;;;;;;;;18.90;62.60;;;;;;5090864;28;19932;-52
2022/03/24 11:25:11;;;;;;;;;;;18.60;63.80;;;;;;5091623;28;19924;-53
2022/03/24 11:27:38;;;;;;;;;;;18.40;66.40;;;;;;5079134;28;19924;-52
2022/03/24 11:30:06;;;;;;;;;;;18.20;65.20;;;;;;5077868;28;19936;-52
2022/03/24 11:32:34;;;;;;;;;;;18.20;63.80;;;;;;5086092;28;19924;-51
2022/03/24 11:35:02;;;;;;;;;;;18.10;65.20;;;;;;5085111;28;19986;-52
2022/03/24 11:37:30;;;;;;;;;;;18.60;63.20;;;;;;5081546;28;19977;-51
2022/03/24 11:40:05;;;;;;;;;;;18.60;61.60;;;;;;5086604;28;19986;-51
2022/03/24 11:42:33;;;;;;;;;;;18.70;60.30;;;;;;5086997;28;19932;-52
2022/03/24 11:45:01;;;;;;;;;;;18.50;60.40;;;;;;5089915;28;19925;-52
2022/03/24 11:47:34;;;;;;;;;;;18.50;60.80;;;;;;5090206;28;19924;-52
2022/03/24 11:50:06;;;;;;;;;;;18.40;60.70;;;;;;5090735;28;19924;-51
2022/03/24 11:52:34;;;;;;;;;;;18.20;60.40;;;;;;5091136;28;19924;-52
2022/03/24 11:55:01;;;;;;;;;;;18.20;61.80;;;;;;5082887;28;19932;-52
2022/03/24 11:57:29;;;;;;;;;;;18.30;60.00;;;;;;5071911;28;19924;-52
2022/03/24 12:00:14;;;;;;;;;;;18.00;59.30;;;;;;5071011;28;19992;-53
2022/03/24 12:02:43;;;;;;;;;;;18.10;60.40;;;;;;5076519;28;20380;-52
2022/03/24 12:05:10;;;;;;;;;;;17.90;59.70;;;;;;5090244;28;19928;-52
2022/03/24 12:07:38;;;;;;;;;;;17.90;62.00;;;;;;5084470;28;19984;-53
2022/03/24 12:10:08;;;;;;;;;;;18.30;60.00;;;;;;5079661;28;19924;-51
2022/03/24 12:12:35;;;;;;;;;;;18.30;60.40;;;;;;5090046;28;19935;-52
2022/03/24 12:15:09;;;;;;;;;;;18.30;62.50;;;;;;5085118;28;20354;-53
2022/03/24 12:17:36;;;;;;;;;;;18.50;60.50;;;;;;5081142;28;19931;-52
2022/03/24 12:20:05;;;;;;;;;;;18.00;63.80;;;;;;5094417;22;19989;-58
2022/03/24 12:22:32;;;;;;;;;;;17.80;62.40;;;;;;5073311;28;19925;-59
2022/03/24 12:25:26;;;;;;;;;;;17.40;61.70;;;;;;5074486;28;19981;-57
2022/03/24 12:28:11;;;;;;;;;;;17.60;64.90;;;;;;5073190;28;19924;-58
2022/03/24 12:30:42;;;;;;;;;;;17.70;61.10;;;;;;5072861;28;20023;-59
2022/03/24 12:33:10;;;;;;;;;;;18.00;61.90;;;;;;5073345;28;19983;-59
2022/03/24 12:35:40;;;;;;;;;;;18.10;61.80;;;;;;5073853;28;19929;-59
2022/03/24 12:38:20;;;;;;;;;;;17.80;59.80;;;;;;5073563;28;20000;-58
2022/03/24 12:41:15;;;;;;;;;;;17.50;59.30;;;;;;5073997;28;19924;-57
2022/03/24 12:43:46;;;;;;;;;;;17.40;58.80;;;;;;5027027;28;20470;-58
2022/03/24 12:46:21;;;;;;;;;;;17.50;58.40;;;;;;5073484;28;19978;-58
2022/03/24 12:48:47;;;;;;;;;;;17.70;59.30;;;;;;5072979;28;19978;-58
2022/03/24 12:51:18;;;;;;;;;;;17.60;60.80;;;;;;5073598;28;19966;-58
2022/03/24 12:53:52;;;;;;;;;;;17.90;59.70;;;;;;5073485;28;19925;-58
2022/03/24 12:56:23;;;;;;;;;;;17.80;63.00;;;;;;5073682;28;19932;-58
2022/03/24 12:58:56;;;;;;;;;;;18.00;59.20;;;;;;5073534;28;19928;-58
2022/03/24 13:01:23;;;;;;;;;;;18.30;58.30;;;;;;5071580;28;19982;-58
2022/03/24 13:03:57;;;;;;;;;;;18.60;59.00;;;;;;5073282;28;19977;-58
2022/03/24 13:06:24;;;;;;;;;;;18.90;58.20;;;;;;5073479;28;19986;-58
2022/03/24 13:09:09;;;;;;;;;;;18.90;58.10;;;;;;5073518;28;19924;-58
2022/03/24 13:11:48;;;;;;;;;;;18.60;57.80;;;;;;5073259;28;19932;-59
2022/03/24 13:14:17;;;;;;;;;;;18.50;57.00;;;;;;5073512;28;20427;-60
2022/03/24 13:16:58;;;;;;;;;;;18.40;57.70;;;;;;5073521;28;20407;-59
2022/03/24 13:19:25;;;;;;;;;;;18.70;56.60;;;;;;5073416;28;20000;-59
2022/03/24 13:21:51;;;;;;;;;;;18.50;58.80;;;;;;5073091;28;19924;-59
2022/03/24 13:24:20;;;;;;;;;;;18.50;57.90;;;;;;5073206;28;19985;-57
2022/03/24 13:26:57;;;;;;;;;;;18.60;56.40;;;;;;5072741;28;20365;-58
2022/03/24 13:29:35;;;;;;;;;;;18.60;57.50;;;;;;5073055;28;19928;-58
2022/03/24 13:32:08;;;;;;;;;;;18.80;58.30;;;;;;5072005;28;19928;-58
2022/03/24 13:34:35;;;;;;;;;;;19.10;56.10;;;;;;5073084;28;20009;-59
2022/03/24 13:37:10;;;;;;;;;;;19.30;58.80;;;;;;5073104;28;19962;-59
2022/03/24 13:39:37;;;;;;;;;;;19.40;55.60;;;;;;5072587;28;20306;-58
2022/03/24 13:42:07;;;;;;;;;;;19.10;57.50;;;;;;5072108;28;19971;-59
2022/03/24 13:44:36;;;;;;;;;;;19.40;59.40;;;;;;5070048;28;19925;-59
2022/03/24 13:47:05;;;;;;;;;;;19.10;57.20;;;;;;5069663;28;19931;-59
2022/03/24 13:49:32;;;;;;;;;;;18.90;58.30;;;;;;5071066;28;19931;-59
2022/03/24 13:51:59;;;;;;;;;;;18.90;57.60;;;;;;5071279;28;19928;-58
2022/03/24 13:54:26;;;;;;;;;;;19.10;57.00;;;;;;5070161;28;19924;-59
2022/03/24 13:56:53;;;;;;;;;;;19.00;56.80;;;;;;5071064;28;19928;-59
2022/03/24 13:59:25;;;;;;;;;;;18.90;58.20;;;;;;5071159;28;19928;-58
2022/03/24 14:01:59;;;;;;;;;;;18.90;59.70;;;;;;5071038;28;19943;-58
2022/03/24 14:04:26;;;;;;;;;;;18.80;60.00;;;;;;5071305;28;19950;-59
2022/03/24 14:07:02;;;;;;;;;;;19.00;61.20;;;;;;5071129;28;19932;-58
2022/03/24 14:09:30;;;;;;;;;;;19.20;62.20;;;;;;5067140;28;19948;-58
2022/03/24 14:12:04;;;;;;;;;;;19.00;62.10;;;;;;5070722;28;20019;-58
2022/03/24 14:14:30;;;;;;;;;;;18.90;62.30;;;;;;5070207;28;20027;-58
2022/03/24 14:16:59;;;;;;;;;;;18.90;61.90;;;;;;5070680;28;20407;-58
2022/03/24 14:19:27;;;;;;;;;;;18.70;63.50;;;;;;5071014;28;19928;-58
2022/03/24 14:21:55;;;;;;;;;;;18.60;63.60;;;;;;5065813;28;19931;-58
2022/03/24 14:24:28;;;;;;;;;;;18.60;63.20;;;;;;5069937;28;20264;-58
2022/03/24 14:26:56;;;;;;;;;;;18.50;63.50;;;;;;5070281;28;19925;-60
2022/03/24 14:29:23;;;;;;;;;;;18.30;64.70;;;;;;5069633;28;19924;-58
2022/03/24 14:32:07;;;;;;;;;;;18.60;64.80;;;;;;5069487;28;19985;-58
2022/03/24 14:34:37;;;;;;;;;;;18.90;64.70;;;;;;5069744;28;19925;-58
2022/03/24 14:37:12;;;;;;;;;;;19.10;63.50;;;;;;5069322;28;20312;-59
2022/03/24 14:39:48;;;;;;;;;;;19.00;62.80;;;;;;5069414;28;20019;-58
2022/03/24 14:42:15;;;;;;;;;;;18.90;63.10;;;;;;5069453;28;20377;-58